createdAt,value
2019-03-18T00:00:50.234Z,3.17
2019-03-18T00:03:19.484Z,2.87
2019-03-18T00:05:48.742Z,2.77
2019-03-18T00:08:17.975Z,3.47
2019-03-18T00:10:47.196Z,3.80
2019-03-18T00:13:16.461Z,2.30
2019-03-18T00:15:45.678Z,4.13
2019-03-18T00:18:15.050Z,2.57
2019-03-18T00:20:44.303Z,5.10
2019-03-18T00:23:13.577Z,2.57
2019-03-18T00:26:02.149Z,2.83
2019-03-18T00:28:31.514Z,2.77
2019-03-18T00:31:00.727Z,2.40
2019-03-18T00:33:29.982Z,2.53
2019-03-18T00:35:59.214Z,2.67
2019-03-18T00:38:28.503Z,3.07
2019-03-18T00:40:57.755Z,3.40
2019-03-18T00:43:46.343Z,2.60
2019-03-18T00:46:15.595Z,2.80
2019-03-18T00:48:44.839Z,2.93
2019-03-18T00:51:14.122Z,5.73
2019-03-18T00:53:43.370Z,4.17
2019-03-18T00:56:12.676Z,2.80
2019-03-18T00:58:41.939Z,4.13
2019-03-18T01:01:11.172Z,4.40
2019-03-18T01:03:40.415Z,4.27
2019-03-18T01:06:29.012Z,3.97
2019-03-18T01:08:58.228Z,5.00
2019-03-18T01:11:46.814Z,5.73
2019-03-18T01:14:16.084Z,4.23
2019-03-18T01:16:45.319Z,5.10
2019-03-18T01:19:14.562Z,6.20
2019-03-18T01:21:45.430Z,6.60
2019-03-18T01:24:14.699Z,4.20
2019-03-18T01:26:43.923Z,4.63
2019-03-18T01:29:25.474Z,4.80
2019-03-18T01:31:54.714Z,5.87
2019-03-18T01:34:23.969Z,4.57
2019-03-18T01:36:53.203Z,5.73
2019-03-18T01:39:22.427Z,4.60
2019-03-18T01:41:51.663Z,6.47
2019-03-18T01:44:21.789Z,6.83
2019-03-18T01:46:51.022Z,5.20
2019-03-18T01:49:20.319Z,4.27
2019-03-18T01:51:49.558Z,5.37
2019-03-18T01:54:18.843Z,10.10
2019-03-18T01:57:07.411Z,7.00
2019-03-18T01:59:36.703Z,6.83
2019-03-18T02:02:05.926Z,6.40
2019-03-18T02:04:35.181Z,6.17
2019-03-18T02:07:04.486Z,5.73
2019-03-18T02:09:33.754Z,6.70
2019-03-18T02:12:22.486Z,5.13
2019-03-18T02:14:51.711Z,5.10
2019-03-18T02:17:20.963Z,8.10
2019-03-18T02:19:50.200Z,5.57
2019-03-18T02:22:19.452Z,7.17
2019-03-18T02:24:48.731Z,9.53
2019-03-18T02:27:18.007Z,9.30
2019-03-18T02:29:47.230Z,5.00
2019-03-18T02:32:16.450Z,5.73
2019-03-18T02:34:45.691Z,7.40
2019-03-18T02:37:14.918Z,4.67
2019-03-18T02:39:44.148Z,8.50
2019-03-18T02:42:13.432Z,6.57
2019-03-18T02:44:42.716Z,5.57
2019-03-18T02:47:11.967Z,7.80
2019-03-18T02:49:41.212Z,5.90
2019-03-18T02:52:10.424Z,7.07
2019-03-18T02:54:39.663Z,8.33
2019-03-18T02:57:08.906Z,7.33
2019-03-18T02:59:38.197Z,9.50
2019-03-18T03:02:07.551Z,7.10
2019-03-18T03:04:36.770Z,9.07
2019-03-18T03:07:06.023Z,6.30
2019-03-18T03:09:54.615Z,9.93
2019-03-18T03:12:23.858Z,8.03
2019-03-18T03:14:53.116Z,7.73
2019-03-18T03:17:22.357Z,10.10
2019-03-18T03:19:51.585Z,11.07
2019-03-18T03:22:20.849Z,11.10
2019-03-18T03:25:09.949Z,10.00
2019-03-18T03:27:39.311Z,9.90
2019-03-18T03:30:13.470Z,9.13
2019-03-18T03:32:42.881Z,10.03
2019-03-18T03:35:12.379Z,8.27
2019-03-18T03:37:41.635Z,9.87
2019-03-18T03:40:14.310Z,10.93
2019-03-18T03:42:43.673Z,9.23
2019-03-18T03:45:14.735Z,10.30
2019-03-18T03:47:44.122Z,10.50
2019-03-18T03:50:14.592Z,11.30
2019-03-18T03:52:43.822Z,13.10
2019-03-18T03:55:13.977Z,11.97
2019-03-18T03:57:43.693Z,11.47
2019-03-18T04:00:14.450Z,11.27
2019-03-18T04:02:43.773Z,11.30
2019-03-18T04:05:13.188Z,13.17
2019-03-18T04:07:42.644Z,13.97
2019-03-18T04:10:13.234Z,13.53
2019-03-18T04:12:42.538Z,13.77
2019-03-18T04:15:15.689Z,15.10
2019-03-18T04:17:44.996Z,12.47
2019-03-18T04:20:15.701Z,13.10
2019-03-18T04:22:44.963Z,13.00
2019-03-18T04:25:14.238Z,12.93
2019-03-18T04:28:02.867Z,13.50
2019-03-18T04:30:32.101Z,13.97
2019-03-18T04:33:01.368Z,14.13
2019-03-18T04:35:30.598Z,12.40
2019-03-18T04:37:59.845Z,12.50
2019-03-18T04:40:29.112Z,12.23
2019-03-18T04:42:58.336Z,15.03
2019-03-18T04:45:27.611Z,11.83
2019-03-18T04:47:56.839Z,13.60
2019-03-18T04:50:45.442Z,14.60
2019-03-18T04:53:14.679Z,12.67
2019-03-18T04:55:43.905Z,13.80
2019-03-18T04:58:13.178Z,14.83
2019-03-18T05:00:42.429Z,14.80
2019-03-18T05:03:11.684Z,14.57
2019-03-18T05:05:40.939Z,20.07
2019-03-18T05:08:10.174Z,15.83
2019-03-18T05:10:58.797Z,14.70
2019-03-18T05:13:28.081Z,16.10
2019-03-18T05:15:57.334Z,19.83
2019-03-18T05:18:26.565Z,17.57
2019-03-18T05:20:55.795Z,19.60
2019-03-18T05:23:25.042Z,17.83
2019-03-18T05:25:54.318Z,19.70
2019-03-18T05:28:23.558Z,19.53
2019-03-18T05:30:52.895Z,21.60
2019-03-18T05:33:22.162Z,25.10
2019-03-18T05:35:51.391Z,20.50
2019-03-18T05:38:20.700Z,24.07
2019-03-18T05:40:49.971Z,20.27
2019-03-18T05:43:19.202Z,27.00
2019-03-18T05:45:48.451Z,21.43
2019-03-18T05:48:17.688Z,23.10
2019-03-18T05:50:46.947Z,22.50
2019-03-18T05:53:35.523Z,21.57
2019-03-18T05:56:04.802Z,25.57
2019-03-18T05:58:34.038Z,25.93
2019-03-18T06:01:03.365Z,26.50
2019-03-18T06:03:32.596Z,29.13
2019-03-18T06:06:01.843Z,29.53
2019-03-18T06:08:31.097Z,25.75
2019-03-18T06:11:00.351Z,26.93
2019-03-18T06:13:29.671Z,27.13
2019-03-18T06:16:18.282Z,26.27
2019-03-18T06:18:47.539Z,30.00
2019-03-18T06:21:16.791Z,26.60
2019-03-18T06:23:46.063Z,29.30
2019-03-18T06:26:15.344Z,27.90
2019-03-18T06:28:44.632Z,31.80
2019-03-18T06:31:13.886Z,30.30
2019-03-18T06:33:43.226Z,30.67
2019-03-18T06:36:12.469Z,22.73
2019-03-18T06:38:44.683Z,30.93
2019-03-18T06:41:13.937Z,31.03
2019-03-18T06:43:43.181Z,35.43
2019-03-18T06:46:12.450Z,30.93
2019-03-18T06:48:41.739Z,33.60
2019-03-18T06:51:10.998Z,30.17
2019-03-18T06:53:43.111Z,39.90
2019-03-18T06:56:12.366Z,38.73
2019-03-18T06:58:42.811Z,35.57
2019-03-18T07:01:13.254Z,38.50
2019-03-18T07:03:42.504Z,34.83
2019-03-18T07:06:11.769Z,32.83
2019-03-18T07:08:41.003Z,37.67
2019-03-18T07:11:10.285Z,41.27
2019-03-18T07:13:39.523Z,30.40
2019-03-18T07:16:08.848Z,27.20
2019-03-18T07:18:40.911Z,29.83
2019-03-18T07:21:10.154Z,32.90
2019-03-18T07:23:39.394Z,31.00
2019-03-18T07:26:08.700Z,30.53
2019-03-18T07:28:37.935Z,26.93
2019-03-18T07:31:08.337Z,23.80
2019-03-18T07:33:37.646Z,27.17
2019-03-18T07:36:08.191Z,24.87
2019-03-18T07:38:37.527Z,23.93
2019-03-18T07:41:06.862Z,24.00
2019-03-18T07:43:36.108Z,28.13
2019-03-18T07:46:06.359Z,25.47
2019-03-18T07:48:36.698Z,27.87
2019-03-18T07:51:06.001Z,20.63
2019-03-18T07:53:35.238Z,25.37
2019-03-18T07:56:04.644Z,27.20
2019-03-18T07:58:33.887Z,23.60
2019-03-18T08:01:04.533Z,24.70
2019-03-18T08:03:36.442Z,25.00
2019-03-18T08:06:04.807Z,27.57
2019-03-18T08:08:34.084Z,22.63
2019-03-18T08:11:09.389Z,22.00
2019-03-18T08:13:38.687Z,26.13
2019-03-18T08:16:07.919Z,29.83
2019-03-18T08:18:43.247Z,27.50
2019-03-18T08:21:10.416Z,23.70
2019-03-18T08:23:39.777Z,21.70
2019-03-18T08:26:09.046Z,25.30
2019-03-18T08:28:38.311Z,27.53
2019-03-18T08:31:07.617Z,20.90
2019-03-18T08:33:36.922Z,18.83
2019-03-18T08:36:06.217Z,23.00
2019-03-18T08:38:36.739Z,20.07
2019-03-18T08:41:07.378Z,18.60
2019-03-18T08:43:36.680Z,19.83
2019-03-18T08:46:05.921Z,21.00
2019-03-18T08:48:35.167Z,22.93
2019-03-18T08:51:04.498Z,21.47
2019-03-18T08:53:33.833Z,21.83
2019-03-18T08:56:03.061Z,20.13
2019-03-18T08:58:32.297Z,23.60
2019-03-18T09:01:01.719Z,24.10
2019-03-18T09:03:30.972Z,18.77
2019-03-18T09:06:00.286Z,16.43
2019-03-18T09:08:29.603Z,16.57
2019-03-18T09:10:59.078Z,16.60
2019-03-18T09:13:28.401Z,21.43
2019-03-18T09:15:57.638Z,23.27
2019-03-18T09:18:26.874Z,15.63
2019-03-18T09:20:56.119Z,18.27
2019-03-18T09:23:25.344Z,17.83
2019-03-18T09:25:54.610Z,13.97
2019-03-18T09:28:23.860Z,17.53
2019-03-18T09:30:53.106Z,9.63
2019-03-18T09:33:22.383Z,13.90
2019-03-18T09:35:52.622Z,14.90
2019-03-18T09:38:21.873Z,12.93
2019-03-18T09:40:51.258Z,12.03
2019-03-18T09:43:20.499Z,8.93
2019-03-18T09:45:49.765Z,13.13
2019-03-18T09:48:19.106Z,10.73
2019-03-18T09:50:48.359Z,16.10
2019-03-18T09:53:17.591Z,20.30
2019-03-18T09:55:46.852Z,12.30
2019-03-18T09:58:16.110Z,13.60
2019-03-18T10:00:46.827Z,15.00
2019-03-18T10:03:16.055Z,13.33
2019-03-18T10:05:45.314Z,14.70
2019-03-18T10:08:14.548Z,8.40
2019-03-18T10:10:43.846Z,11.90
2019-03-18T10:13:13.099Z,13.83
2019-03-18T10:15:42.340Z,13.00
2019-03-18T10:18:13.070Z,12.80
2019-03-18T10:20:42.332Z,16.53
2019-03-18T10:23:11.595Z,14.10
2019-03-18T10:25:40.846Z,12.70
2019-03-18T10:28:10.091Z,9.73
2019-03-18T10:30:39.323Z,9.67
2019-03-18T10:33:08.559Z,8.07
2019-03-18T10:35:39.102Z,9.10
2019-03-18T10:38:08.320Z,9.27
2019-03-18T10:40:37.576Z,6.03
2019-03-18T10:43:06.898Z,9.00
2019-03-18T10:45:36.175Z,8.83
2019-03-18T10:48:05.519Z,12.03
2019-03-18T10:50:34.763Z,11.20
2019-03-18T10:53:04.158Z,6.60
2019-03-18T10:55:33.398Z,7.30
2019-03-18T10:58:02.661Z,6.90
2019-03-18T11:00:31.976Z,8.40
2019-03-18T11:03:01.291Z,6.03
2019-03-18T11:05:30.532Z,8.80
2019-03-18T11:08:01.062Z,8.33
2019-03-18T11:10:30.391Z,7.03
2019-03-18T11:12:59.706Z,9.70
2019-03-18T11:15:29.902Z,8.20
2019-03-18T11:18:00.476Z,10.20
2019-03-18T11:20:29.798Z,9.17
2019-03-18T11:22:59.105Z,10.27
2019-03-18T11:25:28.381Z,6.43
2019-03-18T11:27:57.631Z,6.77
2019-03-18T11:30:26.955Z,14.20
2019-03-18T11:32:56.198Z,7.83
2019-03-18T11:35:25.424Z,9.43
2019-03-18T11:37:54.693Z,5.63
2019-03-18T11:40:23.945Z,10.07
2019-03-18T11:42:53.271Z,7.67
2019-03-18T11:45:25.985Z,14.43
2019-03-18T11:47:55.219Z,7.10
2019-03-18T11:50:24.463Z,6.20
2019-03-18T11:52:53.790Z,7.00
2019-03-18T11:55:25.466Z,8.83
2019-03-18T11:57:54.775Z,7.23
2019-03-18T12:00:27.418Z,9.80
2019-03-18T12:02:56.665Z,5.57
2019-03-18T12:05:29.070Z,4.50
2019-03-18T12:07:58.428Z,10.70
2019-03-18T12:10:27.665Z,8.70
2019-03-18T12:12:56.894Z,9.50
2019-03-18T12:15:27.204Z,9.03
2019-03-18T12:17:56.442Z,10.47
2019-03-18T12:20:26.064Z,7.83
2019-03-18T12:22:55.562Z,7.43
2019-03-18T12:25:24.962Z,7.97
2019-03-18T12:27:54.326Z,11.97
2019-03-18T12:30:24.734Z,11.53
2019-03-18T12:32:53.960Z,9.73
2019-03-18T12:35:23.325Z,7.20
2019-03-18T12:37:52.627Z,6.50
2019-03-18T12:40:21.962Z,8.17
2019-03-18T12:42:51.204Z,9.47
2019-03-18T12:45:21.603Z,6.40
2019-03-18T12:47:50.945Z,11.10
2019-03-18T12:50:36.934Z,7.37
2019-03-18T12:52:52.795Z,8.57
2019-03-18T12:55:22.092Z,5.40
2019-03-18T12:57:51.441Z,7.40
2019-03-18T13:00:29.560Z,10.30
2019-03-18T13:02:58.874Z,6.10
2019-03-18T13:05:28.347Z,7.27
2019-03-18T13:07:57.697Z,6.00
2019-03-18T13:10:27.003Z,7.83
2019-03-18T13:12:56.430Z,7.13
2019-03-18T13:15:25.941Z,4.90
2019-03-18T13:17:55.191Z,6.67
2019-03-18T13:20:24.501Z,11.13
2019-03-18T13:22:54.407Z,8.60
2019-03-18T13:25:25.026Z,8.20
2019-03-18T13:27:54.483Z,7.07
2019-03-18T13:30:25.646Z,8.57
2019-03-18T13:32:54.894Z,6.50
2019-03-18T13:35:24.235Z,13.40
2019-03-18T13:37:53.488Z,5.87
2019-03-18T13:40:24.112Z,14.20
2019-03-18T13:42:53.363Z,10.83
2019-03-18T13:45:23.859Z,10.87
2019-03-18T13:47:53.154Z,7.83
2019-03-18T13:50:22.961Z,9.13
2019-03-18T13:52:52.306Z,7.30
2019-03-18T13:55:21.532Z,12.73
2019-03-18T13:57:50.879Z,6.93
2019-03-18T14:00:21.225Z,9.77
2019-03-18T14:02:50.552Z,6.70
2019-03-18T14:05:21.138Z,11.23
2019-03-18T14:08:00.027Z,8.47
2019-03-18T14:10:22.931Z,11.77
2019-03-18T14:12:53.835Z,6.90
2019-03-18T14:15:24.335Z,12.33
2019-03-18T14:17:53.652Z,7.20
2019-03-18T14:20:24.403Z,9.40
2019-03-18T14:22:53.998Z,5.47
2019-03-18T14:25:24.943Z,7.63
2019-03-18T14:27:54.258Z,11.00
2019-03-18T14:30:24.011Z,8.33
2019-03-18T14:32:54.705Z,6.50
2019-03-18T14:35:23.963Z,7.93
2019-03-18T14:37:53.220Z,9.30
2019-03-18T14:40:23.808Z,6.73
2019-03-18T14:42:53.069Z,10.00
2019-03-18T14:45:23.416Z,7.80
2019-03-18T14:47:52.667Z,5.87
2019-03-18T14:50:22.023Z,7.50
2019-03-18T14:52:51.342Z,7.07
2019-03-18T14:55:20.725Z,6.77
2019-03-18T14:57:49.991Z,7.93
2019-03-18T15:00:27.090Z,5.87
2019-03-18T15:02:56.362Z,11.73
2019-03-18T15:05:25.776Z,9.93
2019-03-18T15:07:55.003Z,6.63
2019-03-18T15:10:26.675Z,10.37
2019-03-18T15:12:55.935Z,8.17
2019-03-18T15:15:25.316Z,4.80
2019-03-18T15:17:54.560Z,5.73
2019-03-18T15:20:27.718Z,8.20
2019-03-18T15:22:57.167Z,5.13
2019-03-18T15:25:28.231Z,3.43
2019-03-18T15:27:57.526Z,5.37
2019-03-18T15:30:26.822Z,9.33
2019-03-18T15:32:56.235Z,9.80
2019-03-18T15:35:25.481Z,7.20
2019-03-18T15:37:54.803Z,5.63
2019-03-18T15:40:30.426Z,6.83
2019-03-18T15:42:59.778Z,6.40
2019-03-18T15:45:29.103Z,7.20
2019-03-18T15:47:58.568Z,6.47
2019-03-18T15:50:28.170Z,4.77
2019-03-18T15:52:57.405Z,10.70
2019-03-18T15:55:28.324Z,5.13
2019-03-18T15:57:59.262Z,6.20
2019-03-18T16:00:29.961Z,7.80
2019-03-18T16:02:59.587Z,5.93
2019-03-18T16:05:28.840Z,7.30
2019-03-18T16:07:58.080Z,6.27
2019-03-18T16:10:46.692Z,12.37
2019-03-18T16:13:15.924Z,11.93
2019-03-18T16:15:45.168Z,6.73
2019-03-18T16:18:18.213Z,7.23
2019-03-18T16:20:47.470Z,7.13
2019-03-18T16:23:16.783Z,7.80
2019-03-18T16:25:47.234Z,16.80
2019-03-18T16:28:16.538Z,13.33
2019-03-18T16:30:45.905Z,10.70
2019-03-18T16:33:15.953Z,5.67
2019-03-18T16:35:45.296Z,5.73
2019-03-18T16:38:14.550Z,7.40
2019-03-18T16:40:43.803Z,10.87
2019-03-18T16:43:13.145Z,12.10
2019-03-18T16:45:42.407Z,8.97
2019-03-18T16:48:11.659Z,12.53
2019-03-18T16:50:40.956Z,13.00
2019-03-18T16:53:10.222Z,9.10
2019-03-18T16:55:39.493Z,10.63
2019-03-18T16:58:08.750Z,7.70
2019-03-18T17:00:37.993Z,10.53
2019-03-18T17:03:07.260Z,10.60
2019-03-18T17:05:36.508Z,8.73
2019-03-18T17:08:05.759Z,9.07
2019-03-18T17:10:34.990Z,6.77
2019-03-18T17:13:04.236Z,11.27
2019-03-18T17:15:33.494Z,18.07
2019-03-18T17:18:02.748Z,11.67
2019-03-18T17:20:31.989Z,11.60
2019-03-18T17:23:20.579Z,15.50
2019-03-18T17:25:49.827Z,11.67
2019-03-18T17:28:19.102Z,9.97
2019-03-18T17:30:48.360Z,11.30
2019-03-18T17:33:17.653Z,14.43
2019-03-18T17:35:52.694Z,10.90
2019-03-18T17:38:21.974Z,9.10
2019-03-18T17:41:10.550Z,13.00
2019-03-18T17:43:39.917Z,14.30
2019-03-18T17:46:46.611Z,9.13
2019-03-18T17:49:15.869Z,8.47
2019-03-18T17:51:47.003Z,9.77
2019-03-18T17:54:16.275Z,10.53
2019-03-18T17:56:45.601Z,8.83
2019-03-18T17:59:14.848Z,10.07
2019-03-18T18:02:03.528Z,12.80
2019-03-18T18:04:32.947Z,8.33
2019-03-18T18:07:02.175Z,15.70
2019-03-18T18:09:31.433Z,12.17
2019-03-18T18:12:20.088Z,11.50
2019-03-18T18:14:49.358Z,10.20
2019-03-18T18:17:18.746Z,10.80
2019-03-18T18:19:48.050Z,24.37
2019-03-18T18:22:17.359Z,12.17
2019-03-18T18:24:46.655Z,14.70
2019-03-18T18:27:15.878Z,13.80
2019-03-18T18:29:45.191Z,4.60
2019-03-18T18:32:14.461Z,12.57
2019-03-18T18:35:03.156Z,10.10
2019-03-18T18:37:32.463Z,7.77
2019-03-18T18:40:03.714Z,8.03
2019-03-18T18:42:32.679Z,5.07
2019-03-18T18:45:02.087Z,13.67
2019-03-18T18:47:31.365Z,10.20
2019-03-18T18:50:00.695Z,13.80
2019-03-18T18:52:29.998Z,7.27
2019-03-18T18:54:59.318Z,7.53
2019-03-18T18:57:28.587Z,15.83
2019-03-18T18:59:57.843Z,5.50
2019-03-18T19:02:27.093Z,12.57
2019-03-18T19:04:56.401Z,15.20
2019-03-18T19:07:25.642Z,8.10
2019-03-18T19:09:54.904Z,19.60
2019-03-18T19:12:24.183Z,23.13
2019-03-18T19:14:53.428Z,12.83
2019-03-18T19:17:22.692Z,8.43
2019-03-18T19:19:51.936Z,10.77
2019-03-18T19:22:21.207Z,6.60
2019-03-18T19:24:50.456Z,8.93
2019-03-18T19:27:19.840Z,4.90
2019-03-18T19:29:49.095Z,10.20
2019-03-18T19:32:18.356Z,9.20
2019-03-18T19:34:47.687Z,8.53
2019-03-18T19:37:16.948Z,17.50
2019-03-18T19:40:07.102Z,14.77
2019-03-18T19:42:36.505Z,11.53
2019-03-18T19:45:08.742Z,19.80
2019-03-18T19:47:37.991Z,10.70
2019-03-18T19:50:13.638Z,11.03
2019-03-18T19:52:42.896Z,14.23
2019-03-18T19:55:12.451Z,8.50
2019-03-18T19:57:41.815Z,14.63
2019-03-18T20:00:14.312Z,16.13
2019-03-18T20:02:43.703Z,10.07
2019-03-18T20:05:32.323Z,10.30
2019-03-18T20:08:01.630Z,7.13
2019-03-18T20:10:30.904Z,8.97
2019-03-18T20:13:00.247Z,9.70
2019-03-18T20:15:29.596Z,9.03
2019-03-18T20:17:58.880Z,13.33
2019-03-18T20:20:28.228Z,11.13
2019-03-18T20:22:57.701Z,13.37
2019-03-18T20:25:27.003Z,14.53
2019-03-18T20:27:56.350Z,11.53
2019-03-18T20:30:25.628Z,15.07
2019-03-18T20:32:55.008Z,9.20
2019-03-18T20:35:24.919Z,11.57
2019-03-18T20:37:54.420Z,11.70
2019-03-18T20:40:23.755Z,11.53
2019-03-18T20:42:53.085Z,10.60
2019-03-18T20:45:24.574Z,6.60
2019-03-18T20:47:53.841Z,12.83
2019-03-18T20:50:25.061Z,10.10
2019-03-18T20:53:13.659Z,7.27
2019-03-18T20:55:43.016Z,11.20
2019-03-18T20:58:12.317Z,8.80
2019-03-18T21:00:41.621Z,7.57
2019-03-18T21:03:11.126Z,11.77
2019-03-18T21:05:40.456Z,8.20
2019-03-18T21:08:09.796Z,8.80
2019-03-18T21:10:39.099Z,15.97
2019-03-18T21:13:08.360Z,8.97
2019-03-18T21:15:37.604Z,10.00
2019-03-18T21:18:06.996Z,7.00
2019-03-18T21:20:36.329Z,9.47
2019-03-18T21:23:05.586Z,9.13
2019-03-18T21:25:34.934Z,18.87
2019-03-18T21:28:04.256Z,15.90
2019-03-18T21:30:33.525Z,9.93
2019-03-18T21:33:02.797Z,8.87
2019-03-18T21:35:32.442Z,7.40
2019-03-18T21:38:01.664Z,6.93
2019-03-18T21:40:30.973Z,13.87
2019-03-18T21:43:00.236Z,6.00
2019-03-18T21:45:29.443Z,6.50
2019-03-18T21:47:58.787Z,10.90
2019-03-18T21:50:28.027Z,15.50
2019-03-18T21:52:57.300Z,7.33
2019-03-18T21:55:26.550Z,10.33
2019-03-18T21:57:55.808Z,10.20
2019-03-18T22:00:25.110Z,15.90
2019-03-18T22:02:54.471Z,9.00
2019-03-18T22:05:23.723Z,8.00
2019-03-18T22:07:52.970Z,5.90
2019-03-18T22:10:22.302Z,10.17
2019-03-18T22:12:51.529Z,13.13
2019-03-18T22:15:21.100Z,9.27
2019-03-18T22:17:50.434Z,11.37
2019-03-18T22:20:20.312Z,10.90
2019-03-18T22:22:49.561Z,11.63
2019-03-18T22:25:18.883Z,12.93
2019-03-18T22:27:48.229Z,6.27
2019-03-18T22:30:20.501Z,8.40
2019-03-18T22:33:09.079Z,8.20
2019-03-18T22:35:38.342Z,12.10
2019-03-18T22:38:19.978Z,12.27
2019-03-18T22:40:52.840Z,7.90
2019-03-18T22:43:22.067Z,6.47
2019-03-18T22:45:51.316Z,9.27
2019-03-18T22:48:20.536Z,13.53
2019-03-18T22:50:49.791Z,8.60
2019-03-18T22:53:19.187Z,9.47
2019-03-18T22:55:48.443Z,18.10
2019-03-18T22:58:19.391Z,12.77
2019-03-18T23:00:50.303Z,9.80
2019-03-18T23:03:19.623Z,13.50
2019-03-18T23:05:48.850Z,6.20
2019-03-18T23:08:18.099Z,15.33
2019-03-18T23:10:47.453Z,6.30
2019-03-18T23:13:16.689Z,17.17
2019-03-18T23:15:46.022Z,9.63
2019-03-18T23:18:15.270Z,12.70
2019-03-18T23:20:44.568Z,7.57
2019-03-18T23:23:13.865Z,11.93
2019-03-18T23:25:43.162Z,12.63
2019-03-18T23:28:12.411Z,12.37
2019-03-18T23:30:43.216Z,11.37
2019-03-18T23:33:12.451Z,7.63
2019-03-18T23:35:41.681Z,11.60
2019-03-18T23:38:10.920Z,8.37
2019-03-18T23:40:40.248Z,17.50
2019-03-18T23:43:09.470Z,13.43
2019-03-18T23:45:38.743Z,13.10
2019-03-18T23:48:07.971Z,14.93
2019-03-18T23:50:37.265Z,13.60
2019-03-18T23:53:06.619Z,12.90
2019-03-18T23:55:35.839Z,9.20
2019-03-18T23:58:05.279Z,10.47
